sensor_id;sensor_type;location;lat;lon;timestamp;P1;durP1;ratioP1;P2;durP2;ratioP2
71771;SDS011;59606;52.138;5.424;2023-04-25T00:00:54;8.23;;;1.67;;
71771;SDS011;59606;52.138;5.424;2023-04-25T00:03:21;15.82;;;2.38;;
71771;SDS011;59606;52.138;5.424;2023-04-25T00:05:48;15.23;;;2.00;;
71771;SDS011;59606;52.138;5.424;2023-04-25T00:08:15;12.43;;;2.50;;
71771;SDS011;59606;52.138;5.424;2023-04-25T00:10:41;19.75;;;2.38;;
71771;SDS011;59606;52.138;5.424;2023-04-25T00:13:08;10.65;;;2.90;;
71771;SDS011;59606;52.138;5.424;2023-04-25T00:15:35;9.00;;;2.13;;
71771;SDS011;59606;52.138;5.424;2023-04-25T00:18:03;10.75;;;1.95;;
71771;SDS011;59606;52.138;5.424;2023-04-25T00:20:31;7.23;;;2.40;;
71771;SDS011;59606;52.138;5.424;2023-04-25T00:22:58;14.50;;;2.42;;
71771;SDS011;59606;52.138;5.424;2023-04-25T00:25:24;11.05;;;2.03;;
71771;SDS011;59606;52.138;5.424;2023-04-25T00:27:51;13.45;;;2.67;;
71771;SDS011;59606;52.138;5.424;2023-04-25T00:30:17;15.07;;;2.90;;
71771;SDS011;59606;52.138;5.424;2023-04-25T00:32:44;12.47;;;2.07;;
71771;SDS011;59606;52.138;5.424;2023-04-25T00:35:11;17.23;;;2.90;;
71771;SDS011;59606;52.138;5.424;2023-04-25T00:37:39;13.13;;;2.53;;
71771;SDS011;59606;52.138;5.424;2023-04-25T00:40:06;9.18;;;2.63;;
71771;SDS011;59606;52.138;5.424;2023-04-25T00:42:32;8.35;;;2.25;;
71771;SDS011;59606;52.138;5.424;2023-04-25T00:45:01;11.67;;;2.53;;
71771;SDS011;59606;52.138;5.424;2023-04-25T00:47:27;8.55;;;2.05;;
71771;SDS011;59606;52.138;5.424;2023-04-25T00:49:54;12.13;;;2.50;;
71771;SDS011;59606;52.138;5.424;2023-04-25T00:52:21;12.35;;;2.28;;
71771;SDS011;59606;52.138;5.424;2023-04-25T00:54:47;11.38;;;2.38;;
71771;SDS011;59606;52.138;5.424;2023-04-25T00:57:14;11.23;;;2.40;;
71771;SDS011;59606;52.138;5.424;2023-04-25T00:59:42;13.02;;;2.25;;
71771;SDS011;59606;52.138;5.424;2023-04-25T01:02:12;9.65;;;1.73;;
71771;SDS011;59606;52.138;5.424;2023-04-25T01:04:39;10.10;;;2.58;;
71771;SDS011;59606;52.138;5.424;2023-04-25T01:07:05;10.75;;;2.40;;
71771;SDS011;59606;52.138;5.424;2023-04-25T01:09:32;6.47;;;1.87;;
71771;SDS011;59606;52.138;5.424;2023-04-25T01:11:59;8.15;;;2.08;;
71771;SDS011;59606;52.138;5.424;2023-04-25T01:14:27;7.03;;;1.98;;
71771;SDS011;59606;52.138;5.424;2023-04-25T01:16:53;12.10;;;2.10;;
71771;SDS011;59606;52.138;5.424;2023-04-25T01:19:20;12.32;;;2.25;;
71771;SDS011;59606;52.138;5.424;2023-04-25T01:21:47;11.83;;;2.03;;
71771;SDS011;59606;52.138;5.424;2023-04-25T01:24:14;17.05;;;2.08;;
71771;SDS011;59606;52.138;5.424;2023-04-25T01:26:41;15.15;;;2.05;;
71771;SDS011;59606;52.138;5.424;2023-04-25T01:29:17;10.10;;;2.05;;
71771;SDS011;59606;52.138;5.424;2023-04-25T01:31:45;11.77;;;2.10;;
71771;SDS011;59606;52.138;5.424;2023-04-25T01:34:12;12.10;;;2.67;;
71771;SDS011;59606;52.138;5.424;2023-04-25T01:36:39;10.63;;;2.38;;
71771;SDS011;59606;52.138;5.424;2023-04-25T01:39:06;12.60;;;2.60;;
71771;SDS011;59606;52.138;5.424;2023-04-25T01:41:33;11.07;;;2.15;;
71771;SDS011;59606;52.138;5.424;2023-04-25T01:44:01;8.80;;;2.88;;
71771;SDS011;59606;52.138;5.424;2023-04-25T01:46:28;6.77;;;2.07;;
71771;SDS011;59606;52.138;5.424;2023-04-25T01:48:55;13.63;;;2.15;;
71771;SDS011;59606;52.138;5.424;2023-04-25T01:51:22;22.42;;;3.03;;
71771;SDS011;59606;52.138;5.424;2023-04-25T01:53:48;11.00;;;2.20;;
71771;SDS011;59606;52.138;5.424;2023-04-25T01:56:17;6.18;;;1.67;;
71771;SDS011;59606;52.138;5.424;2023-04-25T01:58:44;11.10;;;2.40;;
71771;SDS011;59606;52.138;5.424;2023-04-25T02:01:11;5.35;;;1.98;;
71771;SDS011;59606;52.138;5.424;2023-04-25T02:03:38;11.90;;;2.33;;
71771;SDS011;59606;52.138;5.424;2023-04-25T02:06:05;4.97;;;1.80;;
71771;SDS011;59606;52.138;5.424;2023-04-25T02:08:31;15.48;;;2.50;;
71771;SDS011;59606;52.138;5.424;2023-04-25T02:10:58;11.13;;;1.60;;
71771;SDS011;59606;52.138;5.424;2023-04-25T02:13:24;12.70;;;2.13;;
71771;SDS011;59606;52.138;5.424;2023-04-25T02:15:52;9.60;;;2.53;;
71771;SDS011;59606;52.138;5.424;2023-04-25T02:18:18;7.82;;;2.13;;
71771;SDS011;59606;52.138;5.424;2023-04-25T02:20:47;15.82;;;2.40;;
71771;SDS011;59606;52.138;5.424;2023-04-25T02:23:14;14.07;;;2.17;;
71771;SDS011;59606;52.138;5.424;2023-04-25T02:25:41;8.18;;;2.25;;
71771;SDS011;59606;52.138;5.424;2023-04-25T02:28:08;8.95;;;2.28;;
71771;SDS011;59606;52.138;5.424;2023-04-25T02:30:34;8.43;;;2.08;;
71771;SDS011;59606;52.138;5.424;2023-04-25T02:33:01;5.88;;;1.50;;
71771;SDS011;59606;52.138;5.424;2023-04-25T02:35:28;8.77;;;1.53;;
71771;SDS011;59606;52.138;5.424;2023-04-25T02:37:57;11.18;;;1.95;;
71771;SDS011;59606;52.138;5.424;2023-04-25T02:40:24;8.57;;;1.48;;
71771;SDS011;59606;52.138;5.424;2023-04-25T02:42:50;11.80;;;1.77;;
71771;SDS011;59606;52.138;5.424;2023-04-25T02:45:17;11.00;;;1.60;;
71771;SDS011;59606;52.138;5.424;2023-04-25T02:47:44;8.30;;;2.00;;
71771;SDS011;59606;52.138;5.424;2023-04-25T02:50:10;12.98;;;2.83;;
71771;SDS011;59606;52.138;5.424;2023-04-25T02:52:37;13.93;;;2.17;;
71771;SDS011;59606;52.138;5.424;2023-04-25T02:55:04;9.18;;;2.08;;
71771;SDS011;59606;52.138;5.424;2023-04-25T02:57:30;7.28;;;1.85;;
71771;SDS011;59606;52.138;5.424;2023-04-25T02:59:59;10.87;;;1.90;;
71771;SDS011;59606;52.138;5.424;2023-04-25T03:02:25;12.80;;;1.90;;
71771;SDS011;59606;52.138;5.424;2023-04-25T03:04:52;4.85;;;1.67;;
71771;SDS011;59606;52.138;5.424;2023-04-25T03:07:18;9.32;;;2.13;;
71771;SDS011;59606;52.138;5.424;2023-04-25T03:09:45;15.68;;;2.63;;
71771;SDS011;59606;52.138;5.424;2023-04-25T03:12:11;8.83;;;1.80;;
71771;SDS011;59606;52.138;5.424;2023-04-25T03:14:38;5.90;;;2.13;;
71771;SDS011;59606;52.138;5.424;2023-04-25T03:17:04;5.70;;;2.13;;
71771;SDS011;59606;52.138;5.424;2023-04-25T03:19:31;9.48;;;2.10;;
71771;SDS011;59606;52.138;5.424;2023-04-25T03:21:59;12.10;;;2.58;;
71771;SDS011;59606;52.138;5.424;2023-04-25T03:24:25;8.20;;;2.07;;
71771;SDS011;59606;52.138;5.424;2023-04-25T03:26:53;16.35;;;1.98;;
71771;SDS011;59606;52.138;5.424;2023-04-25T03:29:19;10.15;;;1.98;;
71771;SDS011;59606;52.138;5.424;2023-04-25T03:31:50;8.15;;;2.08;;
71771;SDS011;59606;52.138;5.424;2023-04-25T03:34:16;13.80;;;2.30;;
71771;SDS011;59606;52.138;5.424;2023-04-25T03:36:43;6.87;;;2.00;;
71771;SDS011;59606;52.138;5.424;2023-04-25T03:39:09;10.18;;;2.30;;
71771;SDS011;59606;52.138;5.424;2023-04-25T03:41:36;10.75;;;2.00;;
71771;SDS011;59606;52.138;5.424;2023-04-25T03:44:02;8.82;;;1.77;;
71771;SDS011;59606;52.138;5.424;2023-04-25T03:46:29;6.20;;;1.52;;
71771;SDS011;59606;52.138;5.424;2023-04-25T03:48:56;9.20;;;2.07;;
71771;SDS011;59606;52.138;5.424;2023-04-25T03:51:22;8.27;;;1.60;;
71771;SDS011;59606;52.138;5.424;2023-04-25T03:53:49;9.52;;;1.92;;
71771;SDS011;59606;52.138;5.424;2023-04-25T03:56:15;6.32;;;1.73;;
71771;SDS011;59606;52.138;5.424;2023-04-25T03:58:44;11.43;;;2.30;;
71771;SDS011;59606;52.138;5.424;2023-04-25T04:01:10;8.40;;;2.00;;
71771;SDS011;59606;52.138;5.424;2023-04-25T04:03:37;15.65;;;2.75;;
71771;SDS011;59606;52.138;5.424;2023-04-25T04:06:04;10.30;;;2.10;;
71771;SDS011;59606;52.138;5.424;2023-04-25T04:08:32;6.70;;;1.40;;
71771;SDS011;59606;52.138;5.424;2023-04-25T04:10:59;7.75;;;1.88;;
71771;SDS011;59606;52.138;5.424;2023-04-25T04:13:26;9.23;;;1.57;;
71771;SDS011;59606;52.138;5.424;2023-04-25T04:15:53;7.85;;;1.70;;
71771;SDS011;59606;52.138;5.424;2023-04-25T04:18:20;5.68;;;1.42;;
71771;SDS011;59606;52.138;5.424;2023-04-25T04:20:46;10.80;;;1.50;;
71771;SDS011;59606;52.138;5.424;2023-04-25T04:23:15;7.32;;;1.60;;
71771;SDS011;59606;52.138;5.424;2023-04-25T04:25:41;9.67;;;1.60;;
71771;SDS011;59606;52.138;5.424;2023-04-25T04:28:08;7.80;;;1.23;;
71771;SDS011;59606;52.138;5.424;2023-04-25T04:30:34;5.50;;;1.33;;
71771;SDS011;59606;52.138;5.424;2023-04-25T04:33:03;8.40;;;1.60;;
71771;SDS011;59606;52.138;5.424;2023-04-25T04:35:30;4.20;;;0.80;;
71771;SDS011;59606;52.138;5.424;2023-04-25T04:37:56;3.60;;;0.80;;
71771;SDS011;59606;52.138;5.424;2023-04-25T04:40:23;3.53;;;0.63;;
71771;SDS011;59606;52.138;5.424;2023-04-25T04:42:49;6.00;;;1.38;;
71771;SDS011;59606;52.138;5.424;2023-04-25T04:45:15;4.72;;;0.85;;
71771;SDS011;59606;52.138;5.424;2023-04-25T04:47:43;7.80;;;1.17;;
71771;SDS011;59606;52.138;5.424;2023-04-25T04:50:10;6.40;;;1.23;;
71771;SDS011;59606;52.138;5.424;2023-04-25T04:52:36;3.72;;;0.75;;
71771;SDS011;59606;52.138;5.424;2023-04-25T04:55:04;10.65;;;1.27;;
71771;SDS011;59606;52.138;5.424;2023-04-25T04:57:31;6.18;;;0.90;;
71771;SDS011;59606;52.138;5.424;2023-04-25T04:59:59;6.82;;;1.00;;
71771;SDS011;59606;52.138;5.424;2023-04-25T05:02:25;7.67;;;1.23;;
71771;SDS011;59606;52.138;5.424;2023-04-25T05:04:52;4.97;;;1.38;;
71771;SDS011;59606;52.138;5.424;2023-04-25T05:07:19;8.30;;;1.02;;
71771;SDS011;59606;52.138;5.424;2023-04-25T05:09:45;4.78;;;1.27;;
71771;SDS011;59606;52.138;5.424;2023-04-25T05:12:12;4.35;;;1.20;;
71771;SDS011;59606;52.138;5.424;2023-04-25T05:14:38;7.67;;;1.50;;
71771;SDS011;59606;52.138;5.424;2023-04-25T05:17:05;4.65;;;0.95;;
71771;SDS011;59606;52.138;5.424;2023-04-25T05:19:34;8.20;;;1.55;;
71771;SDS011;59606;52.138;5.424;2023-04-25T05:22:01;6.90;;;1.00;;
71771;SDS011;59606;52.138;5.424;2023-04-25T05:24:28;5.32;;;1.20;;
71771;SDS011;59606;52.138;5.424;2023-04-25T05:26:56;11.70;;;1.30;;
71771;SDS011;59606;52.138;5.424;2023-04-25T05:29:23;6.47;;;1.25;;
71771;SDS011;59606;52.138;5.424;2023-04-25T05:31:50;4.60;;;0.98;;
71771;SDS011;59606;52.138;5.424;2023-04-25T05:34:16;8.18;;;1.00;;
71771;SDS011;59606;52.138;5.424;2023-04-25T05:36:43;5.43;;;1.23;;
71771;SDS011;59606;52.138;5.424;2023-04-25T05:39:09;3.37;;;0.93;;
71771;SDS011;59606;52.138;5.424;2023-04-25T05:41:36;8.73;;;1.77;;
71771;SDS011;59606;52.138;5.424;2023-04-25T05:44:03;8.73;;;1.10;;
71771;SDS011;59606;52.138;5.424;2023-04-25T05:46:29;7.68;;;1.20;;
71771;SDS011;59606;52.138;5.424;2023-04-25T05:48:56;4.07;;;1.13;;
71771;SDS011;59606;52.138;5.424;2023-04-25T05:51:22;3.17;;;1.03;;
71771;SDS011;59606;52.138;5.424;2023-04-25T05:53:49;8.80;;;0.98;;
71771;SDS011;59606;52.138;5.424;2023-04-25T05:56:16;5.88;;;1.27;;
71771;SDS011;59606;52.138;5.424;2023-04-25T05:58:42;5.90;;;1.50;;
71771;SDS011;59606;52.138;5.424;2023-04-25T06:01:09;7.47;;;1.15;;
71771;SDS011;59606;52.138;5.424;2023-04-25T06:03:35;4.10;;;1.03;;
71771;SDS011;59606;52.138;5.424;2023-04-25T06:06:04;14.60;;;1.63;;
71771;SDS011;59606;52.138;5.424;2023-04-25T06:08:31;5.75;;;1.15;;
71771;SDS011;59606;52.138;5.424;2023-04-25T06:10:57;11.02;;;1.42;;
71771;SDS011;59606;52.138;5.424;2023-04-25T06:13:25;4.57;;;0.90;;
71771;SDS011;59606;52.138;5.424;2023-04-25T06:15:52;8.60;;;1.13;;
71771;SDS011;59606;52.138;5.424;2023-04-25T06:18:18;8.00;;;0.93;;
71771;SDS011;59606;52.138;5.424;2023-04-25T06:20:45;5.07;;;0.95;;
71771;SDS011;59606;52.138;5.424;2023-04-25T06:23:11;5.63;;;1.05;;
71771;SDS011;59606;52.138;5.424;2023-04-25T06:25:38;7.28;;;2.10;;
71771;SDS011;59606;52.138;5.424;2023-04-25T06:28:04;11.33;;;1.30;;
71771;SDS011;59606;52.138;5.424;2023-04-25T06:30:31;9.50;;;1.30;;
71771;SDS011;59606;52.138;5.424;2023-04-25T06:32:57;4.88;;;0.82;;
71771;SDS011;59606;52.138;5.424;2023-04-25T06:35:24;9.25;;;1.30;;
71771;SDS011;59606;52.138;5.424;2023-04-25T06:37:50;8.15;;;1.45;;
71771;SDS011;59606;52.138;5.424;2023-04-25T06:40:17;5.53;;;0.87;;
71771;SDS011;59606;52.138;5.424;2023-04-25T06:42:43;7.35;;;0.90;;
71771;SDS011;59606;52.138;5.424;2023-04-25T06:45:10;5.85;;;1.15;;
71771;SDS011;59606;52.138;5.424;2023-04-25T06:47:38;7.55;;;1.38;;
71771;SDS011;59606;52.138;5.424;2023-04-25T06:50:05;7.22;;;1.35;;
71771;SDS011;59606;52.138;5.424;2023-04-25T06:52:32;3.90;;;1.00;;
71771;SDS011;59606;52.138;5.424;2023-04-25T06:54:58;5.75;;;0.90;;
71771;SDS011;59606;52.138;5.424;2023-04-25T06:57:24;7.40;;;1.13;;
71771;SDS011;59606;52.138;5.424;2023-04-25T06:59:51;4.95;;;1.00;;
71771;SDS011;59606;52.138;5.424;2023-04-25T07:02:18;8.93;;;0.90;;
71771;SDS011;59606;52.138;5.424;2023-04-25T07:04:44;3.57;;;1.07;;
71771;SDS011;59606;52.138;5.424;2023-04-25T07:07:12;8.57;;;1.10;;
71771;SDS011;59606;52.138;5.424;2023-04-25T07:09:39;8.48;;;1.02;;
71771;SDS011;59606;52.138;5.424;2023-04-25T07:12:05;7.35;;;1.10;;
71771;SDS011;59606;52.138;5.424;2023-04-25T07:14:32;5.03;;;1.17;;
71771;SDS011;59606;52.138;5.424;2023-04-25T07:16:58;6.20;;;0.90;;
71771;SDS011;59606;52.138;5.424;2023-04-25T07:19:25;2.67;;;0.65;;
71771;SDS011;59606;52.138;5.424;2023-04-25T07:21:53;7.57;;;0.73;;
71771;SDS011;59606;52.138;5.424;2023-04-25T07:24:19;4.78;;;1.17;;
71771;SDS011;59606;52.138;5.424;2023-04-25T07:26:46;4.15;;;0.93;;
71771;SDS011;59606;52.138;5.424;2023-04-25T07:29:12;9.00;;;0.97;;
71771;SDS011;59606;52.138;5.424;2023-04-25T07:31:39;7.22;;;0.93;;
71771;SDS011;59606;52.138;5.424;2023-04-25T07:34:06;5.65;;;1.00;;
71771;SDS011;59606;52.138;5.424;2023-04-25T07:36:32;5.70;;;1.13;;
71771;SDS011;59606;52.138;5.424;2023-04-25T07:38:58;7.00;;;1.17;;
71771;SDS011;59606;52.138;5.424;2023-04-25T07:41:25;5.00;;;1.13;;
71771;SDS011;59606;52.138;5.424;2023-04-25T07:43:52;8.10;;;1.38;;
71771;SDS011;59606;52.138;5.424;2023-04-25T07:46:18;3.53;;;0.88;;
71771;SDS011;59606;52.138;5.424;2023-04-25T07:48:44;6.13;;;0.60;;
71771;SDS011;59606;52.138;5.424;2023-04-25T07:51:11;5.78;;;0.68;;
71771;SDS011;59606;52.138;5.424;2023-04-25T07:53:37;8.77;;;0.60;;
71771;SDS011;59606;52.138;5.424;2023-04-25T07:56:05;9.95;;;1.48;;
71771;SDS011;59606;52.138;5.424;2023-04-25T07:58:32;3.92;;;0.88;;
71771;SDS011;59606;52.138;5.424;2023-04-25T08:00:58;5.35;;;0.98;;
71771;SDS011;59606;52.138;5.424;2023-04-25T08:03:25;8.32;;;1.08;;
71771;SDS011;59606;52.138;5.424;2023-04-25T08:05:52;8.93;;;1.10;;
71771;SDS011;59606;52.138;5.424;2023-04-25T08:08:18;6.38;;;0.95;;
71771;SDS011;59606;52.138;5.424;2023-04-25T08:10:45;11.40;;;0.80;;
71771;SDS011;59606;52.138;5.424;2023-04-25T08:13:11;5.55;;;0.90;;
71771;SDS011;59606;52.138;5.424;2023-04-25T08:15:38;9.45;;;1.10;;
71771;SDS011;59606;52.138;5.424;2023-04-25T08:18:07;3.17;;;0.60;;
71771;SDS011;59606;52.138;5.424;2023-04-25T08:20:33;4.97;;;0.65;;
71771;SDS011;59606;52.138;5.424;2023-04-25T08:23:00;6.53;;;0.90;;
71771;SDS011;59606;52.138;5.424;2023-04-25T08:25:26;7.82;;;0.70;;
71771;SDS011;59606;52.138;5.424;2023-04-25T08:27:53;3.40;;;1.40;;
71771;SDS011;59606;52.138;5.424;2023-04-25T08:30:19;6.07;;;0.60;;
71771;SDS011;59606;52.138;5.424;2023-04-25T08:32:47;8.98;;;0.73;;
71771;SDS011;59606;52.138;5.424;2023-04-25T08:35:14;5.40;;;0.75;;
71771;SDS011;59606;52.138;5.424;2023-04-25T08:37:40;3.72;;;0.75;;
71771;SDS011;59606;52.138;5.424;2023-04-25T08:40:11;4.43;;;0.50;;
71771;SDS011;59606;52.138;5.424;2023-04-25T08:42:41;2.43;;;0.60;;
71771;SDS011;59606;52.138;5.424;2023-04-25T08:45:09;2.20;;;0.40;;
71771;SDS011;59606;52.138;5.424;2023-04-25T08:47:36;3.28;;;0.70;;
71771;SDS011;59606;52.138;5.424;2023-04-25T08:50:04;7.68;;;0.60;;
71771;SDS011;59606;52.138;5.424;2023-04-25T08:52:34;3.85;;;0.88;;
71771;SDS011;59606;52.138;5.424;2023-04-25T08:55:04;5.20;;;0.80;;
71771;SDS011;59606;52.138;5.424;2023-04-25T08:57:33;5.40;;;0.65;;
71771;SDS011;59606;52.138;5.424;2023-04-25T08:59:59;3.47;;;0.60;;
71771;SDS011;59606;52.138;5.424;2023-04-25T09:02:27;9.48;;;1.00;;
71771;SDS011;59606;52.138;5.424;2023-04-25T09:04:54;3.92;;;0.65;;
71771;SDS011;59606;52.138;5.424;2023-04-25T09:07:21;9.20;;;1.50;;
71771;SDS011;59606;52.138;5.424;2023-04-25T09:09:48;6.20;;;0.80;;
71771;SDS011;59606;52.138;5.424;2023-04-25T09:12:14;8.07;;;1.13;;
71771;SDS011;59606;52.138;5.424;2023-04-25T09:14:41;7.50;;;0.88;;
71771;SDS011;59606;52.138;5.424;2023-04-25T09:17:09;5.60;;;1.00;;
71771;SDS011;59606;52.138;5.424;2023-04-25T09:19:35;5.60;;;0.70;;
71771;SDS011;59606;52.138;5.424;2023-04-25T09:22:07;6.88;;;0.75;;
71771;SDS011;59606;52.138;5.424;2023-04-25T09:24:44;3.55;;;0.50;;
71771;SDS011;59606;52.138;5.424;2023-04-25T09:27:13;4.28;;;0.60;;
71771;SDS011;59606;52.138;5.424;2023-04-25T09:29:49;6.18;;;0.57;;
71771;SDS011;59606;52.138;5.424;2023-04-25T09:32:23;4.07;;;0.60;;
71771;SDS011;59606;52.138;5.424;2023-04-25T09:34:51;3.65;;;0.65;;
71771;SDS011;59606;52.138;5.424;2023-04-25T09:37:20;4.72;;;0.60;;
71771;SDS011;59606;52.138;5.424;2023-04-25T09:39:54;9.63;;;0.82;;
71771;SDS011;59606;52.138;5.424;2023-04-25T09:42:22;2.40;;;0.60;;
71771;SDS011;59606;52.138;5.424;2023-04-25T09:44:51;8.50;;;0.73;;
71771;SDS011;59606;52.138;5.424;2023-04-25T09:47:19;4.80;;;0.70;;
71771;SDS011;59606;52.138;5.424;2023-04-25T09:49:48;3.38;;;1.05;;
71771;SDS011;59606;52.138;5.424;2023-04-25T09:52:17;4.53;;;0.68;;
71771;SDS011;59606;52.138;5.424;2023-04-25T09:54:47;2.45;;;0.50;;
71771;SDS011;59606;52.138;5.424;2023-04-25T09:57:15;5.37;;;0.80;;
71771;SDS011;59606;52.138;5.424;2023-04-25T09:59:47;3.67;;;0.60;;
71771;SDS011;59606;52.138;5.424;2023-04-25T10:02:18;2.13;;;0.45;;
71771;SDS011;59606;52.138;5.424;2023-04-25T10:04:48;6.78;;;0.60;;
71771;SDS011;59606;52.138;5.424;2023-04-25T10:07:19;5.22;;;0.40;;
71771;SDS011;59606;52.138;5.424;2023-04-25T10:09:48;1.77;;;0.53;;
71771;SDS011;59606;52.138;5.424;2023-04-25T10:12:17;2.50;;;1.23;;
71771;SDS011;59606;52.138;5.424;2023-04-25T10:14:44;4.63;;;0.70;;
71771;SDS011;59606;52.138;5.424;2023-04-25T10:17:12;1.80;;;0.40;;
71771;SDS011;59606;52.138;5.424;2023-04-25T10:19:40;4.20;;;0.88;;
71771;SDS011;59606;52.138;5.424;2023-04-25T10:22:07;5.90;;;0.77;;
71771;SDS011;59606;52.138;5.424;2023-04-25T10:24:40;3.70;;;0.50;;
71771;SDS011;59606;52.138;5.424;2023-04-25T10:27:07;6.50;;;0.60;;
71771;SDS011;59606;52.138;5.424;2023-04-25T10:29:34;5.40;;;0.57;;
71771;SDS011;59606;52.138;5.424;2023-04-25T10:32:01;2.63;;;0.55;;
71771;SDS011;59606;52.138;5.424;2023-04-25T10:34:41;3.97;;;0.67;;
71771;SDS011;59606;52.138;5.424;2023-04-25T10:37:09;3.78;;;0.45;;
71771;SDS011;59606;52.138;5.424;2023-04-25T10:39:38;8.40;;;1.00;;
71771;SDS011;59606;52.138;5.424;2023-04-25T10:42:07;6.95;;;0.80;;
71771;SDS011;59606;52.138;5.424;2023-04-25T10:44:34;4.60;;;0.47;;
71771;SDS011;59606;52.138;5.424;2023-04-25T10:47:03;3.17;;;0.77;;
71771;SDS011;59606;52.138;5.424;2023-04-25T10:49:35;4.63;;;0.60;;
71771;SDS011;59606;52.138;5.424;2023-04-25T10:52:16;5.85;;;0.50;;
71771;SDS011;59606;52.138;5.424;2023-04-25T10:54:48;4.05;;;0.68;;
71771;SDS011;59606;52.138;5.424;2023-04-25T11:00:11;5.27;;;0.80;;
71771;SDS011;59606;52.138;5.424;2023-04-25T11:02:46;2.92;;;0.47;;
71771;SDS011;59606;52.138;5.424;2023-04-25T11:05:19;3.50;;;0.50;;
71771;SDS011;59606;52.138;5.424;2023-04-25T11:07:52;2.15;;;0.40;;
71771;SDS011;59606;52.138;5.424;2023-04-25T11:12:59;4.77;;;0.40;;
71771;SDS011;59606;52.138;5.424;2023-04-25T11:15:26;6.03;;;0.90;;
71771;SDS011;59606;52.138;5.424;2023-04-25T11:17:53;5.30;;;0.70;;
71771;SDS011;59606;52.138;5.424;2023-04-25T11:20:21;3.97;;;1.00;;
71771;SDS011;59606;52.138;5.424;2023-04-25T11:22:50;4.43;;;1.00;;
71771;SDS011;59606;52.138;5.424;2023-04-25T11:25:18;3.77;;;0.70;;
71771;SDS011;59606;52.138;5.424;2023-04-25T11:27:51;5.53;;;1.05;;
71771;SDS011;59606;52.138;5.424;2023-04-25T11:30:18;5.57;;;1.10;;
71771;SDS011;59606;52.138;5.424;2023-04-25T11:32:46;3.90;;;0.70;;
71771;SDS011;59606;52.138;5.424;2023-04-25T11:35:13;4.40;;;0.60;;
71771;SDS011;59606;52.138;5.424;2023-04-25T11:37:40;3.47;;;0.70;;
71771;SDS011;59606;52.138;5.424;2023-04-25T11:40:07;5.80;;;1.10;;
71771;SDS011;59606;52.138;5.424;2023-04-25T11:42:39;3.33;;;0.68;;
71771;SDS011;59606;52.138;5.424;2023-04-25T11:45:10;2.58;;;0.70;;
71771;SDS011;59606;52.138;5.424;2023-04-25T11:47:37;4.18;;;0.98;;
71771;SDS011;59606;52.138;5.424;2023-04-25T11:50:04;4.93;;;0.80;;
71771;SDS011;59606;52.138;5.424;2023-04-25T11:52:38;5.28;;;0.98;;
71771;SDS011;59606;52.138;5.424;2023-04-25T11:57:42;6.32;;;0.55;;
71771;SDS011;59606;52.138;5.424;2023-04-25T12:00:18;5.00;;;0.73;;
71771;SDS011;59606;52.138;5.424;2023-04-25T12:02:48;4.00;;;0.60;;
71771;SDS011;59606;52.138;5.424;2023-04-25T12:05:19;5.03;;;0.60;;
71771;SDS011;59606;52.138;5.424;2023-04-25T12:07:58;4.55;;;0.63;;
71771;SDS011;59606;52.138;5.424;2023-04-25T12:10:36;2.80;;;0.65;;
71771;SDS011;59606;52.138;5.424;2023-04-25T12:13:17;6.00;;;0.50;;
71771;SDS011;59606;52.138;5.424;2023-04-25T12:15:54;5.53;;;1.00;;
71771;SDS011;59606;52.138;5.424;2023-04-25T12:18:25;3.80;;;0.82;;
71771;SDS011;59606;52.138;5.424;2023-04-25T12:20:54;7.38;;;0.90;;
71771;SDS011;59606;52.138;5.424;2023-04-25T12:23:25;2.53;;;0.50;;
71771;SDS011;59606;52.138;5.424;2023-04-25T12:25:53;2.83;;;0.70;;
71771;SDS011;59606;52.138;5.424;2023-04-25T12:28:20;3.60;;;0.70;;
71771;SDS011;59606;52.138;5.424;2023-04-25T12:30:57;3.83;;;0.50;;
71771;SDS011;59606;52.138;5.424;2023-04-25T12:33:26;6.22;;;0.68;;
71771;SDS011;59606;52.138;5.424;2023-04-25T12:36:00;4.10;;;0.70;;
71771;SDS011;59606;52.138;5.424;2023-04-25T12:38:38;4.68;;;0.75;;
71771;SDS011;59606;52.138;5.424;2023-04-25T12:41:06;6.77;;;0.70;;
71771;SDS011;59606;52.138;5.424;2023-04-25T12:43:34;3.90;;;0.60;;
71771;SDS011;59606;52.138;5.424;2023-04-25T12:46:00;5.15;;;0.55;;
71771;SDS011;59606;52.138;5.424;2023-04-25T12:48:27;4.30;;;0.60;;
71771;SDS011;59606;52.138;5.424;2023-04-25T12:50:54;2.25;;;0.45;;
71771;SDS011;59606;52.138;5.424;2023-04-25T12:53:21;4.27;;;0.63;;
71771;SDS011;59606;52.138;5.424;2023-04-25T12:55:48;3.97;;;0.50;;
71771;SDS011;59606;52.138;5.424;2023-04-25T12:58:15;3.60;;;0.85;;
71771;SDS011;59606;52.138;5.424;2023-04-25T13:00:44;3.95;;;1.05;;
71771;SDS011;59606;52.138;5.424;2023-04-25T13:03:11;5.85;;;0.82;;
71771;SDS011;59606;52.138;5.424;2023-04-25T13:05:39;6.67;;;0.77;;
71771;SDS011;59606;52.138;5.424;2023-04-25T13:08:06;2.38;;;0.50;;
71771;SDS011;59606;52.138;5.424;2023-04-25T13:10:32;2.90;;;0.60;;
71771;SDS011;59606;52.138;5.424;2023-04-25T13:13:00;3.08;;;0.55;;
71771;SDS011;59606;52.138;5.424;2023-04-25T13:15:27;1.80;;;0.50;;
71771;SDS011;59606;52.138;5.424;2023-04-25T13:17:54;7.23;;;0.70;;
71771;SDS011;59606;52.138;5.424;2023-04-25T13:20:22;7.03;;;1.50;;
71771;SDS011;59606;52.138;5.424;2023-04-25T13:22:48;4.20;;;1.17;;
71771;SDS011;59606;52.138;5.424;2023-04-25T13:25:15;2.38;;;0.50;;
71771;SDS011;59606;52.138;5.424;2023-04-25T13:27:42;4.95;;;1.13;;
71771;SDS011;59606;52.138;5.424;2023-04-25T13:30:10;3.77;;;0.47;;
71771;SDS011;59606;52.138;5.424;2023-04-25T13:32:37;9.45;;;1.17;;
71771;SDS011;59606;52.138;5.424;2023-04-25T13:35:04;36.33;;;4.47;;
71771;SDS011;59606;52.138;5.424;2023-04-25T13:37:35;10.35;;;1.35;;
71771;SDS011;59606;52.138;5.424;2023-04-25T13:40:03;12.18;;;1.92;;
71771;SDS011;59606;52.138;5.424;2023-04-25T13:42:36;4.43;;;0.60;;
71771;SDS011;59606;52.138;5.424;2023-04-25T13:45:03;6.13;;;0.73;;
71771;SDS011;59606;52.138;5.424;2023-04-25T13:47:30;2.33;;;0.57;;
71771;SDS011;59606;52.138;5.424;2023-04-25T13:49:57;2.90;;;0.50;;
71771;SDS011;59606;52.138;5.424;2023-04-25T13:52:23;3.47;;;0.80;;
71771;SDS011;59606;52.138;5.424;2023-04-25T13:54:53;3.33;;;0.50;;
71771;SDS011;59606;52.138;5.424;2023-04-25T13:57:19;2.58;;;0.50;;
71771;SDS011;59606;52.138;5.424;2023-04-25T13:59:46;7.03;;;0.68;;
71771;SDS011;59606;52.138;5.424;2023-04-25T14:02:13;3.22;;;0.70;;
71771;SDS011;59606;52.138;5.424;2023-04-25T14:04:40;3.78;;;0.80;;
71771;SDS011;59606;52.138;5.424;2023-04-25T14:07:07;5.90;;;0.93;;
71771;SDS011;59606;52.138;5.424;2023-04-25T14:09:33;2.42;;;0.70;;
71771;SDS011;59606;52.138;5.424;2023-04-25T14:12:00;5.53;;;0.65;;
71771;SDS011;59606;52.138;5.424;2023-04-25T14:14:28;3.22;;;0.77;;
71771;SDS011;59606;52.138;5.424;2023-04-25T14:16:57;7.13;;;0.88;;
71771;SDS011;59606;52.138;5.424;2023-04-25T14:19:24;6.47;;;0.60;;
71771;SDS011;59606;52.138;5.424;2023-04-25T14:21:50;4.47;;;0.70;;
71771;SDS011;59606;52.138;5.424;2023-04-25T14:24:17;6.47;;;0.90;;
71771;SDS011;59606;52.138;5.424;2023-04-25T14:26:43;3.35;;;0.65;;
71771;SDS011;59606;52.138;5.424;2023-04-25T14:29:10;8.15;;;0.70;;
71771;SDS011;59606;52.138;5.424;2023-04-25T14:31:40;6.30;;;0.70;;
71771;SDS011;59606;52.138;5.424;2023-04-25T14:34:07;2.42;;;0.50;;
71771;SDS011;59606;52.138;5.424;2023-04-25T14:36:35;4.47;;;0.80;;
71771;SDS011;59606;52.138;5.424;2023-04-25T14:39:02;11.20;;;0.82;;
71771;SDS011;59606;52.138;5.424;2023-04-25T14:41:30;5.65;;;0.70;;
71771;SDS011;59606;52.138;5.424;2023-04-25T14:43:57;3.83;;;0.70;;
71771;SDS011;59606;52.138;5.424;2023-04-25T14:46:23;1.95;;;0.30;;
71771;SDS011;59606;52.138;5.424;2023-04-25T14:48:50;2.97;;;0.93;;
71771;SDS011;59606;52.138;5.424;2023-04-25T14:51:17;3.88;;;0.77;;
71771;SDS011;59606;52.138;5.424;2023-04-25T14:53:44;4.85;;;0.80;;
71771;SDS011;59606;52.138;5.424;2023-04-25T14:56:10;5.03;;;0.97;;